Time;durP1;ratioP1;P1;durP2;ratioP2;P2;SDS_P1;SDS_P2;PMS_P1;PMS_P2;Temp;Humidity;BMP_temperature;BMP_pressure;BME280_temperature;BME280_humidity;BME280_pressure;Samples;Min_cycle;Max_cycle;Signal;HPM_P1;HPM_P2
2023/04/14 00:01:37;;;;;;;62.05;10.52;;;11.50;84.00;;;;;;5025287;28;20046;-58
2023/04/14 00:04:03;;;;;;;50.58;10.43;;;11.50;84.00;;;;;;5057130;28;20022;-59
2023/04/14 00:06:28;;;;;;;49.90;9.82;;;11.50;84.00;;;;;;5056721;28;20045;-59
2023/04/14 00:08:54;;;;;;;52.10;10.73;;;11.50;84.10;;;;;;5056977;28;20022;-59
2023/04/14 00:11:20;;;;;;;43.75;9.50;;;11.50;84.10;;;;;;5040456;28;20038;-58
2023/04/14 00:13:45;;;;;;;52.47;8.85;;;11.40;84.00;;;;;;5039830;28;20022;-59
2023/04/14 00:16:11;;;;;;;44.22;9.88;;;11.40;84.00;;;;;;5023823;28;20034;-59
2023/04/14 00:18:37;;;;;;;51.05;9.27;;;11.40;84.10;;;;;;5024735;28;20046;-59
2023/04/14 00:21:02;;;;;;;50.83;8.85;;;11.40;84.20;;;;;;5040446;28;20516;-58
2023/04/14 00:23:28;;;;;;;42.83;8.60;;;11.40;84.00;;;;;;5023819;28;20048;-59
2023/04/14 00:25:53;;;;;;;36.28;7.20;;;11.40;83.90;;;;;;5039985;28;20497;-58
2023/04/14 00:28:19;;;;;;;38.53;8.43;;;11.40;84.00;;;;;;5040019;28;20034;-59
2023/04/14 00:30:45;;;;;;;42.38;9.25;;;11.40;84.00;;;;;;5024269;28;20042;-58
2023/04/14 00:33:11;;;;;;;44.03;7.65;;;11.30;84.00;;;;;;5024922;28;20030;-59
2023/04/14 00:35:36;;;;;;;35.28;8.05;;;11.30;84.20;;;;;;5025200;28;20037;-58
2023/04/14 00:38:02;;;;;;;50.22;8.43;;;11.30;84.20;;;;;;5056825;28;20080;-58
2023/04/14 00:40:28;;;;;;;47.13;8.38;;;11.30;84.20;;;;;;5056368;28;20034;-59
2023/04/14 00:42:54;;;;;;;39.90;7.90;;;11.20;84.20;;;;;;5043499;28;20041;-58
2023/04/14 00:45:19;;;;;;;41.47;8.27;;;11.20;84.20;;;;;;5043597;28;20030;-58
2023/04/14 00:47:49;;;;;;;39.63;7.97;;;11.20;84.30;;;;;;5060501;28;20030;-59
2023/04/14 00:50:16;;;;;;;32.53;7.43;;;11.20;84.40;;;;;;5043221;28;20034;-59
2023/04/14 00:52:42;;;;;;;36.35;7.65;;;11.20;84.40;;;;;;5043477;28;20033;-58
2023/04/14 00:55:08;;;;;;;47.55;8.23;;;11.20;84.40;;;;;;5043614;28;20030;-58
2023/04/14 00:57:33;;;;;;;33.55;6.82;;;11.10;84.40;;;;;;5028508;28;20057;-58
2023/04/14 00:59:59;;;;;;;39.22;7.35;;;11.10;84.40;;;;;;5043268;28;20044;-59
2023/04/14 01:02:25;;;;;;;36.00;7.13;;;11.10;84.40;;;;;;5043648;28;20032;-58
2023/04/14 01:04:50;;;;;;;45.90;7.82;;;11.10;84.40;;;;;;5026580;28;20026;-59
2023/04/14 01:07:20;;;;;;;38.03;7.60;;;11.10;84.40;;;;;;5059940;28;20041;-59
2023/04/14 01:09:45;;;;;;;31.95;6.13;;;11.10;85.10;;;;;;5042936;28;20466;-58
2023/04/14 01:12:20;;;;;;;28.42;6.20;;;11.00;84.40;;;;;;5042897;28;20036;-58
2023/04/14 01:15:05;;;;;;;33.80;7.35;;;11.00;84.50;;;;;;5026076;28;20026;-58
2023/04/14 01:17:56;;;;;;;25.85;6.07;;;11.00;84.60;;;;;;5041977;28;20050;-59
2023/04/14 01:20:28;;;;;;;32.88;6.70;;;11.00;84.50;;;;;;5059669;28;20197;-59
2023/04/14 01:23:07;;;;;;;36.88;6.15;;;11.00;84.50;;;;;;5026416;28;20026;-58
2023/04/14 01:25:54;;;;;;;25.48;6.75;;;10.90;84.50;;;;;;5042731;28;20101;-59
2023/04/14 01:28:34;;;;;;;27.15;6.30;;;10.90;84.60;;;;;;5028019;28;20098;-58
2023/04/14 01:31:22;;;;;;;30.63;6.43;;;11.00;84.60;;;;;;5059530;28;20080;-59
2023/04/14 01:33:51;;;;;;;36.65;6.18;;;10.90;84.60;;;;;;5027726;28;20145;-59
2023/04/14 01:36:21;;;;;;;28.42;5.97;;;10.90;84.60;;;;;;5042526;28;20029;-58
2023/04/14 01:38:46;;;;;;;26.33;6.13;;;10.90;84.70;;;;;;5042501;28;20148;-59
2023/04/14 01:41:12;;;;;;;27.23;5.65;;;10.90;84.70;;;;;;5042948;28;20030;-58
2023/04/14 01:43:41;;;;;;;27.67;6.57;;;10.90;84.60;;;;;;5059334;28;20038;-58
2023/04/14 01:46:09;;;;;;;24.67;6.75;;;10.90;84.70;;;;;;5042323;28;20037;-58
2023/04/14 01:48:34;;;;;;;28.92;6.88;;;10.80;84.70;;;;;;5042375;28;20057;-58
2023/04/14 01:51:00;;;;;;;20.80;6.07;;;10.80;84.80;;;;;;5058807;28;20455;-58
2023/04/14 01:53:26;;;;;;;23.20;5.90;;;10.80;84.90;;;;;;5025076;28;20041;-58
2023/04/14 01:55:52;;;;;;;27.15;7.00;;;10.70;84.90;;;;;;5042468;28;20029;-59
2023/04/14 01:58:18;;;;;;;28.17;6.50;;;10.70;84.90;;;;;;5058931;28;20026;-59
2023/04/14 02:00:43;;;;;;;27.95;6.60;;;10.70;84.90;;;;;;5025850;28;20037;-59
2023/04/14 02:03:09;;;;;;;24.70;6.43;;;10.70;84.90;;;;;;5042544;28;20026;-59
2023/04/14 02:05:37;;;;;;;25.13;7.07;;;10.70;84.80;;;;;;5042072;28;20470;-59
2023/04/14 02:08:02;;;;;;;26.52;6.78;;;10.70;85.00;;;;;;5042385;28;20038;-58
2023/04/14 02:10:28;;;;;;;24.05;6.40;;;10.70;85.10;;;;;;5042241;28;20061;-59
2023/04/14 02:12:56;;;;;;;21.13;6.50;;;10.70;85.20;;;;;;5059688;28;20022;-58
2023/04/14 02:15:21;;;;;;;19.60;6.78;;;10.70;85.30;;;;;;5042217;28;20045;-58
2023/04/14 02:17:47;;;;;;;24.60;7.07;;;10.70;85.40;;;;;;5042068;28;20118;-59
2023/04/14 02:20:13;;;;;;;17.65;6.95;;;10.70;85.40;;;;;;5058843;28;20073;-58
2023/04/14 02:22:38;;;;;;;16.35;6.13;;;10.70;85.60;;;;;;5042313;28;20025;-59
2023/04/14 02:25:04;;;;;;;19.65;6.22;;;10.70;85.50;;;;;;5058734;28;20052;-58
2023/04/14 02:27:52;;;;;;;16.55;6.03;;;10.70;85.70;;;;;;5041939;28;20089;-57
2023/04/14 02:30:37;;;;;;;17.48;5.20;;;10.60;85.50;;;;;;5038712;28;20041;-58
2023/04/14 02:33:06;;;;;;;21.48;5.90;;;10.60;85.60;;;;;;5059400;28;20034;-58
2023/04/14 02:35:54;;;;;;;21.13;5.63;;;10.60;85.70;;;;;;5041434;28;20049;-58
2023/04/14 02:38:45;;;;;;;18.70;5.30;;;10.60;85.60;;;;;;5052616;28;20038;-58
2023/04/14 02:41:16;;;;;;;10.93;5.25;;;10.60;85.80;;;;;;5055735;28;20550;-58
2023/04/14 02:43:46;;;;;;;15.07;5.72;;;10.60;85.70;;;;;;5057319;28;20026;-58
2023/04/14 02:46:12;;;;;;;20.92;5.80;;;10.60;85.80;;;;;;5041322;28;20041;-59
2023/04/14 02:48:38;;;;;;;13.35;4.95;;;10.60;85.90;;;;;;5041243;28;20060;-58
2023/04/14 02:51:03;;;;;;;19.23;6.18;;;10.60;85.80;;;;;;5041202;28;20034;-58
2023/04/14 02:53:29;;;;;;;14.38;4.90;;;10.50;86.00;;;;;;5057874;28;20026;-58
2023/04/14 02:55:57;;;;;;;18.17;5.75;;;10.60;85.90;;;;;;5057767;28;20478;-58
2023/04/14 02:58:22;;;;;;;15.20;5.10;;;10.50;85.90;;;;;;5041024;28;20022;-58
2023/04/14 03:00:48;;;;;;;24.83;6.22;;;10.50;86.20;;;;;;5041258;28;20125;-58
2023/04/14 03:03:13;;;;;;;23.55;6.07;;;10.50;86.30;;;;;;5024440;28;20054;-58
2023/04/14 03:05:42;;;;;;;16.98;5.32;;;10.50;86.60;;;;;;5057794;28;20038;-58
2023/04/14 03:08:09;;;;;;;12.07;5.05;;;10.50;86.80;;;;;;5040701;28;20033;-58
2023/04/14 03:10:35;;;;;;;13.27;4.32;;;10.50;86.70;;;;;;5024463;28;20093;-58
2023/04/14 03:13:01;;;;;;;15.63;5.03;;;10.50;86.40;;;;;;5041318;28;20483;-59
2023/04/14 03:15:26;;;;;;;15.48;4.68;;;10.50;86.40;;;;;;5057396;28;20038;-59
2023/04/14 03:17:52;;;;;;;21.08;5.00;;;10.50;86.30;;;;;;5057608;28;20367;-58
2023/04/14 03:20:20;;;;;;;15.75;4.93;;;10.50;86.30;;;;;;5040657;28;20030;-59
2023/04/14 03:22:47;;;;;;;17.67;4.65;;;10.40;86.30;;;;;;5024231;28;20034;-58
2023/04/14 03:25:14;;;;;;;12.50;4.97;;;10.50;86.40;;;;;;5057538;28;20034;-59
2023/04/14 03:27:40;;;;;;;18.42;5.25;;;10.40;86.30;;;;;;5057088;28;20022;-58
2023/04/14 03:30:07;;;;;;;19.38;4.38;;;10.40;86.30;;;;;;5040556;28;20026;-58
2023/04/14 03:32:35;;;;;;;21.98;5.03;;;10.40;86.40;;;;;;5040529;28;20030;-59
2023/04/14 03:35:01;;;;;;;39.17;6.70;;;10.40;86.40;;;;;;5056771;28;20026;-58
2023/04/14 03:37:27;;;;;;;71.28;11.38;;;10.40;86.40;;;;;;5040474;28;20041;-58
2023/04/14 03:39:52;;;;;;;52.63;8.65;;;10.40;86.40;;;;;;5023717;28;20022;-58
2023/04/14 03:42:18;;;;;;;50.47;8.95;;;10.40;86.40;;;;;;5056784;28;20073;-58
2023/04/14 03:44:48;;;;;;;48.92;8.27;;;10.30;86.30;;;;;;5040719;28;20029;-58
2023/04/14 03:47:14;;;;;;;55.28;9.02;;;10.30;86.40;;;;;;5039781;28;20033;-58
2023/04/14 03:49:42;;;;;;;31.50;7.30;;;10.30;86.40;;;;;;5040288;28;20018;-59
2023/04/14 03:52:09;;;;;;;31.40;7.55;;;10.30;86.40;;;;;;5039957;28;20034;-58
2023/04/14 03:54:35;;;;;;;31.42;7.68;;;10.30;86.40;;;;;;5056620;28;20044;-58
2023/04/14 03:57:03;;;;;;;39.97;7.05;;;10.20;86.40;;;;;;5040477;28;20030;-59
2023/04/14 03:59:29;;;;;;;21.15;6.32;;;10.30;86.30;;;;;;5040097;28;20512;-59
2023/04/14 04:01:54;;;;;;;28.02;7.20;;;10.30;86.30;;;;;;5040152;28;20034;-59
2023/04/14 04:04:21;;;;;;;36.42;6.72;;;10.20;86.20;;;;;;5040241;28;20022;-58
2023/04/14 04:06:48;;;;;;;35.30;7.10;;;10.20;86.20;;;;;;5056760;28;20287;-58
2023/04/14 04:09:16;;;;;;;35.45;6.28;;;10.20;86.30;;;;;;5040016;28;20034;-58
2023/04/14 04:11:42;;;;;;;29.73;6.95;;;10.20;86.20;;;;;;5039890;28;20111;-58
2023/04/14 04:14:08;;;;;;;32.28;5.93;;;10.20;86.30;;;;;;5039862;28;20026;-58
2023/04/14 04:16:34;;;;;;;22.77;5.78;;;10.20;86.40;;;;;;5056169;28;20084;-58
2023/04/14 04:18:59;;;;;;;23.40;5.28;;;10.20;86.30;;;;;;5040066;28;20021;-58
2023/04/14 04:21:26;;;;;;;25.60;5.97;;;10.20;86.30;;;;;;5039773;28;20030;-58
2023/04/14 04:23:52;;;;;;;20.95;5.57;;;10.10;86.20;;;;;;5040250;28;20040;-59
2023/04/14 04:26:18;;;;;;;26.98;5.85;;;10.20;86.30;;;;;;5056447;28;20038;-58
2023/04/14 04:28:44;;;;;;;26.35;5.53;;;10.10;86.30;;;;;;5056905;28;20026;-58
2023/04/14 04:31:09;;;;;;;21.27;5.43;;;10.10;86.40;;;;;;5040006;28;20040;-58
2023/04/14 04:33:35;;;;;;;30.33;5.90;;;10.10;86.40;;;;;;5040563;28;20064;-57
2023/04/14 04:36:01;;;;;;;24.10;6.07;;;10.10;86.40;;;;;;5056734;28;20030;-58
2023/04/14 04:38:26;;;;;;;29.02;6.82;;;10.00;86.40;;;;;;5039822;28;20018;-58
2023/04/14 04:40:52;;;;;;;30.42;6.50;;;10.10;86.40;;;;;;5056331;28;20054;-58
2023/04/14 04:43:20;;;;;;;18.52;5.50;;;10.00;86.90;;;;;;5040152;28;20521;-59
2023/04/14 04:46:11;;;;;;;26.38;5.90;;;10.00;86.30;;;;;;5024748;28;20264;-58
2023/04/14 04:48:36;;;;;;;27.23;6.30;;;10.00;86.40;;;;;;5056560;28;20080;-59
2023/04/14 04:51:02;;;;;;;22.27;5.70;;;10.00;86.80;;;;;;5056085;28;20046;-58
2023/04/14 04:53:27;;;;;;;25.73;5.47;;;10.00;86.70;;;;;;5055900;28;20018;-58
2023/04/14 04:55:53;;;;;;;32.95;6.10;;;10.00;87.00;;;;;;5024274;28;20061;-59
2023/04/14 04:58:18;;;;;;;19.75;5.22;;;10.00;87.00;;;;;;5039099;28;20500;-59
2023/04/14 05:00:44;;;;;;;23.83;5.28;;;10.00;86.90;;;;;;5055527;28;20439;-59
2023/04/14 05:03:09;;;;;;;25.55;6.00;;;10.00;86.90;;;;;;5024321;28;20033;-58
2023/04/14 05:05:36;;;;;;;26.45;5.18;;;9.90;87.00;;;;;;5024459;28;20034;-58
2023/04/14 05:08:01;;;;;;;18.45;4.82;;;10.00;87.20;;;;;;5039437;28;20183;-58
2023/04/14 05:10:27;;;;;;;15.23;3.90;;;10.00;87.20;;;;;;5056123;28;20106;-58
2023/04/14 05:12:52;;;;;;;13.75;4.65;;;9.90;87.10;;;;;;5024334;28;20022;-58
2023/04/14 05:15:18;;;;;;;27.50;4.72;;;9.90;87.10;;;;;;5039584;28;20034;-58
2023/04/14 05:17:44;;;;;;;14.90;4.55;;;9.90;87.10;;;;;;5024277;28;20049;-59
2023/04/14 05:20:10;;;;;;;17.75;4.45;;;9.90;87.10;;;;;;5022747;28;20061;-58
2023/04/14 05:22:36;;;;;;;16.58;4.63;;;9.90;87.00;;;;;;5056012;28;20117;-58
2023/04/14 05:25:01;;;;;;;14.80;4.22;;;9.90;87.00;;;;;;5039247;28;20113;-58
2023/04/14 05:27:27;;;;;;;25.38;5.13;;;9.90;87.70;;;;;;5023007;28;20033;-58
2023/04/14 05:29:52;;;;;;;18.65;4.50;;;9.90;87.20;;;;;;5042484;28;20455;-59
2023/04/14 05:32:19;;;;;;;17.92;4.32;;;9.90;87.10;;;;;;5027538;28;20022;-58
2023/04/14 05:34:45;;;;;;;13.65;3.83;;;9.80;87.10;;;;;;5059273;28;20018;-59
2023/04/14 05:37:11;;;;;;;16.55;3.92;;;9.80;87.10;;;;;;5059519;28;20038;-58
2023/04/14 05:39:36;;;;;;;16.83;4.28;;;9.80;87.00;;;;;;5059607;28;20041;-58
2023/04/14 05:42:02;;;;;;;10.20;3.95;;;9.80;87.00;;;;;;5026412;28;20030;-58
2023/04/14 05:44:27;;;;;;;12.57;3.92;;;9.80;87.10;;;;;;5027279;28;20029;-58
2023/04/14 05:46:53;;;;;;;20.25;4.30;;;9.80;87.10;;;;;;5058725;28;20034;-57
2023/04/14 05:49:18;;;;;;;11.75;3.88;;;9.80;87.00;;;;;;5027168;28;20085;-58
2023/04/14 05:51:44;;;;;;;21.15;3.75;;;9.80;87.00;;;;;;5026713;28;20109;-58
2023/04/14 05:54:09;;;;;;;15.07;4.22;;;9.80;87.00;;;;;;5026846;28;20041;-58
2023/04/14 05:56:35;;;;;;;13.70;4.28;;;9.80;87.00;;;;;;5058751;28;20029;-58
2023/04/14 05:59:00;;;;;;;14.02;3.35;;;9.80;86.90;;;;;;5042092;28;20086;-58
2023/04/14 06:01:26;;;;;;;13.80;3.67;;;9.70;86.80;;;;;;5027384;28;20034;-58
2023/04/14 06:03:52;;;;;;;11.88;3.70;;;9.70;87.50;;;;;;5027137;28;20025;-59
2023/04/14 06:06:18;;;;;;;12.80;3.63;;;9.80;86.90;;;;;;5042169;28;20058;-59
2023/04/14 06:08:44;;;;;;;9.18;3.45;;;9.70;86.80;;;;;;5029993;28;20509;-59
2023/04/14 06:11:10;;;;;;;19.55;4.10;;;9.70;86.80;;;;;;5043998;28;20041;-59
2023/04/14 06:13:35;;;;;;;18.60;3.63;;;9.70;86.70;;;;;;5044883;28;20032;-58
2023/04/14 06:16:01;;;;;;;10.30;3.47;;;9.70;86.90;;;;;;5046353;28;20034;-58
2023/04/14 06:18:26;;;;;;;14.30;4.00;;;9.70;87.00;;;;;;5028444;28;20029;-58
2023/04/14 06:20:52;;;;;;;27.55;4.63;;;9.70;87.20;;;;;;5046351;28;20037;-58
2023/04/14 06:23:18;;;;;;;24.10;4.50;;;9.70;87.20;;;;;;5046786;28;20029;-58
2023/04/14 06:25:44;;;;;;;16.20;4.53;;;9.70;87.40;;;;;;5046380;28;20037;-58
2023/04/14 06:28:10;;;;;;;16.42;3.60;;;9.70;87.20;;;;;;5045169;28;20109;-58
2023/04/14 06:30:35;;;;;;;10.55;3.90;;;9.70;87.10;;;;;;5044894;28;20042;-58
2023/04/14 06:33:03;;;;;;;15.48;3.58;;;9.70;87.00;;;;;;5028554;28;20086;-58
2023/04/14 06:35:30;;;;;;;15.52;3.60;;;9.70;87.00;;;;;;5045090;28;20025;-58
2023/04/14 06:37:56;;;;;;;29.08;5.60;;;9.60;86.90;;;;;;5045089;28;20116;-58
2023/04/14 06:40:21;;;;;;;45.03;6.47;;;9.60;87.00;;;;;;5044376;28;20030;-58
2023/04/14 06:42:47;;;;;;;48.80;5.93;;;9.60;87.10;;;;;;5044862;28;20052;-59
2023/04/14 06:45:13;;;;;;;32.38;5.32;;;9.60;87.00;;;;;;5028031;28;20037;-59
2023/04/14 06:47:38;;;;;;;35.20;5.50;;;9.60;87.00;;;;;;5044513;28;20053;-59
2023/04/14 06:50:04;;;;;;;32.33;5.45;;;9.60;87.00;;;;;;5044220;28;20065;-59
2023/04/14 06:52:30;;;;;;;27.45;4.97;;;9.60;87.00;;;;;;5045587;28;20037;-58
2023/04/14 06:54:55;;;;;;;23.58;5.45;;;9.60;87.00;;;;;;5045686;28;20025;-59
2023/04/14 06:57:21;;;;;;;23.38;5.15;;;9.60;86.90;;;;;;5045907;28;20451;-58
2023/04/14 06:59:46;;;;;;;34.17;4.80;;;9.60;86.80;;;;;;5044175;28;20349;-59
2023/04/14 07:02:12;;;;;;;27.95;4.90;;;9.70;86.90;;;;;;5044072;28;20062;-58
2023/04/14 07:04:37;;;;;;;42.85;5.63;;;9.70;86.80;;;;;;5045684;28;20052;-58
2023/04/14 07:07:03;;;;;;;30.30;5.32;;;9.60;86.90;;;;;;5045362;28;20071;-58
2023/04/14 07:09:29;;;;;;;32.28;5.03;;;9.60;86.90;;;;;;5045298;28;20036;-58
2023/04/14 07:11:55;;;;;;;34.22;5.28;;;9.70;86.90;;;;;;5027402;28;20026;-59
2023/04/14 07:14:21;;;;;;;38.65;5.05;;;9.70;87.00;;;;;;5045356;28;20056;-58
2023/04/14 07:16:47;;;;;;;29.70;5.07;;;9.60;86.90;;;;;;5042359;28;20041;-58
2023/04/14 07:19:12;;;;;;;26.52;5.20;;;9.70;86.90;;;;;;5042932;28;20028;-58
2023/04/14 07:21:38;;;;;;;43.97;5.78;;;9.70;86.90;;;;;;5042623;28;20045;-58
2023/04/14 07:24:04;;;;;;;30.75;5.22;;;9.70;86.90;;;;;;5043637;28;20045;-58
2023/04/14 07:26:30;;;;;;;46.90;6.57;;;9.70;86.90;;;;;;5043926;28;20133;-59
2023/04/14 07:28:56;;;;;;;50.67;5.85;;;9.60;86.90;;;;;;5043972;28;20034;-59
2023/04/14 07:31:22;;;;;;;48.33;6.50;;;9.70;87.00;;;;;;5045078;28;20030;-58
2023/04/14 07:33:47;;;;;;;47.55;7.25;;;9.70;87.80;;;;;;5043713;28;20068;-58
2023/04/14 07:36:13;;;;;;;44.20;6.60;;;9.70;87.30;;;;;;5043644;28;20030;-58
2023/04/14 07:38:38;;;;;;;68.55;7.93;;;9.70;87.40;;;;;;5043634;28;20022;-58
2023/04/14 07:41:05;;;;;;;67.30;8.23;;;9.70;88.10;;;;;;5044801;28;20022;-58
2023/04/14 07:43:34;;;;;;;58.42;7.82;;;9.70;87.50;;;;;;5044997;28;20029;-58
2023/04/14 07:46:04;;;;;;;54.65;8.40;;;9.70;87.60;;;;;;5043360;28;20488;-58
2023/04/14 07:48:33;;;;;;;47.78;7.35;;;9.70;87.40;;;;;;5027132;28;20091;-58
2023/04/14 07:50:59;;;;;;;65.93;9.38;;;9.70;87.40;;;;;;5042418;28;20049;-58
2023/04/14 07:53:25;;;;;;;86.80;11.15;;;9.70;87.60;;;;;;5043303;28;20052;-58
2023/04/14 07:55:50;;;;;;;124.30;14.02;;;9.70;88.00;;;;;;5026755;28;20040;-58
2023/04/14 07:58:16;;;;;;;92.70;11.20;;;9.70;88.10;;;;;;5039939;28;20030;-58
2023/04/14 08:00:42;;;;;;;111.05;13.93;;;9.80;88.20;;;;;;5040853;28;20045;-58
2023/04/14 08:03:08;;;;;;;99.78;14.10;;;9.80;88.20;;;;;;5039630;28;20083;-58
2023/04/14 08:05:34;;;;;;;106.22;13.95;;;9.80;88.20;;;;;;5040698;28;20029;-58
2023/04/14 08:07:59;;;;;;;122.45;12.90;;;9.80;88.20;;;;;;5042733;28;20079;-58
2023/04/14 08:10:25;;;;;;;132.30;14.60;;;9.80;88.10;;;;;;5041186;28;21412;-58
2023/04/14 08:12:51;;;;;;;114.10;15.05;;;9.90;88.10;;;;;;5043080;28;20039;-58
2023/04/14 08:15:17;;;;;;;108.22;14.73;;;9.90;88.10;;;;;;5039614;28;20038;-58
2023/04/14 08:17:43;;;;;;;118.95;13.38;;;9.90;88.30;;;;;;5051705;28;20091;-59
2023/04/14 08:20:08;;;;;;;175.60;19.33;;;9.90;88.60;;;;;;5046598;28;20026;-58
2023/04/14 08:22:34;;;;;;;132.10;14.60;;;9.90;88.00;;;;;;5044580;28;20041;-58
2023/04/14 08:25:00;;;;;;;117.97;15.57;;;9.90;88.30;;;;;;5043178;28;20025;-58
2023/04/14 08:27:25;;;;;;;125.97;16.88;;;9.90;88.10;;;;;;5043230;28;20048;-58
2023/04/14 08:29:51;;;;;;;166.85;17.80;;;9.90;88.00;;;;;;5045385;28;20025;-58
2023/04/14 08:32:16;;;;;;;179.27;19.60;;;10.00;87.80;;;;;;5041638;28;20030;-58
2023/04/14 08:34:43;;;;;;;152.10;17.52;;;9.90;87.90;;;;;;5044306;28;20041;-58
2023/04/14 08:37:08;;;;;;;113.78;13.82;;;10.00;88.50;;;;;;5041534;28;20030;-58
2023/04/14 08:39:34;;;;;;;170.35;19.15;;;10.00;87.50;;;;;;5039791;28;20088;-59
2023/04/14 08:41:59;;;;;;;117.55;15.55;;;10.00;87.60;;;;;;5064272;28;20067;-58
2023/04/14 08:44:25;;;;;;;125.90;16.85;;;10.00;87.50;;;;;;5043063;28;20032;-58
2023/04/14 08:46:54;;;;;;;128.65;14.15;;;10.00;87.60;;;;;;5036214;28;20048;-58
2023/04/14 08:49:41;;;;;;;107.00;15.55;;;10.00;87.90;;;;;;5065514;28;20033;-58
2023/04/14 08:52:09;;;;;;;101.03;14.80;;;10.10;88.00;;;;;;5042632;28;20124;-59
2023/04/14 08:54:35;;;;;;;104.15;13.57;;;10.10;87.90;;;;;;5042462;28;20037;-59
2023/04/14 08:57:01;;;;;;;121.07;13.63;;;10.00;87.80;;;;;;5029040;28;20129;-58
2023/04/14 08:59:27;;;;;;;105.07;15.13;;;10.00;88.00;;;;;;4990416;28;20493;-58
2023/04/14 09:01:53;;;;;;;105.40;14.95;;;10.00;87.90;;;;;;5006673;28;20034;-59
2023/04/14 09:04:19;;;;;;;109.25;14.55;;;10.10;88.50;;;;;;5020795;28;20034;-58
2023/04/14 09:06:44;;;;;;;127.10;16.13;;;10.10;87.50;;;;;;5045384;28;20573;-58
2023/04/14 09:09:10;;;;;;;131.30;16.30;;;10.10;87.30;;;;;;5046543;28;20025;-58
2023/04/14 09:11:36;;;;;;;110.78;14.60;;;10.20;87.40;;;;;;5048747;28;20038;-58
2023/04/14 09:14:02;;;;;;;154.57;18.73;;;10.20;87.30;;;;;;5034563;28;20030;-59
2023/04/14 09:16:27;;;;;;;136.10;16.63;;;10.20;87.40;;;;;;5032294;28;20030;-58
2023/04/14 09:18:53;;;;;;;123.95;18.23;;;10.20;87.10;;;;;;5046740;28;20022;-58
2023/04/14 09:21:19;;;;;;;91.82;13.27;;;10.30;87.10;;;;;;5046395;28;20033;-59
2023/04/14 09:23:46;;;;;;;138.73;16.15;;;10.30;87.00;;;;;;5041172;28;20050;-58
2023/04/14 09:26:12;;;;;;;130.02;17.20;;;10.30;86.80;;;;;;5042574;28;20034;-58
2023/04/14 09:28:41;;;;;;;145.85;17.55;;;10.40;87.70;;;;;;5076184;28;20021;-58
2023/04/14 09:31:07;;;;;;;140.77;17.42;;;10.40;87.20;;;;;;5044835;28;20029;-58
2023/04/14 09:33:39;;;;;;;106.30;15.20;;;10.50;87.30;;;;;;5033868;28;20049;-59
2023/04/14 09:36:04;;;;;;;110.68;14.82;;;10.50;87.20;;;;;;5041932;28;20053;-58
2023/04/14 09:38:35;;;;;;;126.63;15.32;;;10.50;87.00;;;;;;5028317;28;20521;-58
2023/04/14 09:41:01;;;;;;;101.03;15.20;;;10.60;87.10;;;;;;5058130;28;20030;-58
2023/04/14 09:43:28;;;;;;;128.85;16.30;;;10.60;87.20;;;;;;5042683;28;20041;-59
2023/04/14 09:45:54;;;;;;;125.90;15.43;;;10.70;87.20;;;;;;5033702;28;20163;-58
2023/04/14 09:48:20;;;;;;;118.90;16.45;;;10.70;86.90;;;;;;5033368;28;20048;-58
2023/04/14 09:51:02;;;;;;;126.30;18.55;;;10.80;86.90;;;;;;5029386;28;20045;-59
2023/04/14 09:53:32;;;;;;;156.75;18.77;;;10.90;86.80;;;;;;5040941;28;20036;-58
2023/04/14 09:55:58;;;;;;;123.35;16.58;;;10.90;86.80;;;;;;5036792;28;20137;-58
2023/04/14 09:58:28;;;;;;;114.18;15.48;;;10.90;86.80;;;;;;5044035;28;20029;-58
2023/04/14 10:00:54;;;;;;;119.75;17.25;;;11.00;86.90;;;;;;5042664;28;20044;-58
2023/04/14 10:03:47;;;;;;;141.38;16.63;;;11.00;86.90;;;;;;5045289;28;20040;-58
2023/04/14 10:06:16;;;;;;;144.75;17.33;;;11.10;86.80;;;;;;5059808;28;20041;-58
2023/04/14 10:08:47;;;;;;;119.63;14.65;;;11.20;86.70;;;;;;5029732;28;20049;-58
2023/04/14 10:11:19;;;;;;;92.03;12.95;;;11.20;86.40;;;;;;5042750;28;20121;-58
2023/04/14 10:13:58;;;;;;;78.97;11.68;;;11.30;86.10;;;;;;5026541;28;20026;-58
2023/04/14 10:16:23;;;;;;;62.10;11.30;;;11.30;85.90;;;;;;5036646;28;20051;-58
2023/04/14 10:18:49;;;;;;;79.20;11.20;;;11.30;85.80;;;;;;5046830;28;20041;-58
2023/04/14 10:21:15;;;;;;;81.40;12.68;;;11.40;86.10;;;;;;5025521;28;20671;-58
2023/04/14 10:23:41;;;;;;;95.55;12.05;;;11.50;86.00;;;;;;5037227;28;20100;-58
2023/04/14 10:26:07;;;;;;;66.78;10.45;;;11.50;86.20;;;;;;5050575;28;20029;-58
2023/04/14 10:28:53;;;;;;;106.75;13.23;;;11.50;85.80;;;;;;5033738;28;20446;-58
2023/04/14 10:31:31;;;;;;;97.97;13.48;;;11.60;85.70;;;;;;5044495;28;20034;-59
2023/04/14 10:33:57;;;;;;;133.75;14.70;;;11.70;86.00;;;;;;5026356;28;20049;-58
2023/04/14 10:36:27;;;;;;;94.47;13.50;;;11.70;86.10;;;;;;5042021;28;20025;-59
2023/04/14 10:39:00;;;;;;;137.65;16.98;;;11.80;86.20;;;;;;5038654;28;20033;-58
2023/04/14 10:41:26;;;;;;;120.32;15.68;;;11.90;86.00;;;;;;5036811;28;20030;-58
2023/04/14 10:43:51;;;;;;;124.82;17.33;;;11.90;85.80;;;;;;5018652;28;20164;-58
2023/04/14 10:46:17;;;;;;;105.75;13.95;;;11.90;85.80;;;;;;5007745;28;20034;-58
2023/04/14 10:48:48;;;;;;;101.85;12.07;;;12.00;85.60;;;;;;5052612;28;20053;-58
2023/04/14 10:51:16;;;;;;;212.15;21.55;;;12.00;85.40;;;;;;5036903;28;20037;-58
2023/04/14 10:53:46;;;;;;;132.25;15.85;;;12.10;85.30;;;;;;5041041;28;20022;-58
2023/04/14 10:56:12;;;;;;;125.68;16.05;;;12.10;85.10;;;;;;5040043;28;20035;-58
2023/04/14 10:58:37;;;;;;;104.60;14.48;;;12.20;84.90;;;;;;5040513;28;20104;-58
2023/04/14 11:01:29;;;;;;;102.70;12.73;;;12.20;84.60;;;;;;5044743;28;20030;-58
2023/04/14 11:03:55;;;;;;;84.82;11.18;;;12.20;84.50;;;;;;5041157;28;20454;-58
2023/04/14 11:06:57;;;;;;;98.32;13.25;;;12.30;84.00;;;;;;5041057;28;20033;-58
2023/04/14 11:09:23;;;;;;;135.93;15.05;;;12.30;84.30;;;;;;5042173;28;20117;-58
2023/04/14 11:11:49;;;;;;;118.43;14.63;;;12.40;84.20;;;;;;5044744;28;20046;-58
2023/04/14 11:14:15;;;;;;;102.82;12.32;;;12.40;84.10;;;;;;5041844;28;20104;-58
2023/04/14 11:16:40;;;;;;;133.00;17.13;;;12.40;83.80;;;;;;5027341;28;20088;-58
2023/04/14 11:19:15;;;;;;;122.90;15.70;;;12.40;83.70;;;;;;5056104;28;20026;-58
2023/04/14 11:21:48;;;;;;;106.20;13.97;;;12.50;83.90;;;;;;5040971;28;20022;-58
2023/04/14 11:24:14;;;;;;;87.90;12.23;;;12.50;83.90;;;;;;5044575;28;20030;-58
2023/04/14 11:26:40;;;;;;;89.78;12.95;;;12.50;84.30;;;;;;5042580;28;20055;-58
2023/04/14 11:29:07;;;;;;;115.53;12.98;;;12.50;83.60;;;;;;5024410;28;20052;-58
2023/04/14 11:31:33;;;;;;;139.38;16.08;;;12.60;83.20;;;;;;5041635;28;20042;-58
2023/04/14 11:33:59;;;;;;;59.60;9.10;;;12.50;83.20;;;;;;5044707;28;20080;-57
2023/04/14 11:36:25;;;;;;;64.65;9.73;;;12.60;83.00;;;;;;5038282;28;20030;-58
2023/04/14 11:38:50;;;;;;;70.75;10.60;;;12.60;82.70;;;;;;5040334;28;20050;-58
2023/04/14 11:41:16;;;;;;;64.10;10.23;;;12.70;82.60;;;;;;5025333;28;20037;-58
2023/04/14 11:43:45;;;;;;;69.03;9.10;;;12.80;82.40;;;;;;5013807;28;20075;-58
2023/04/14 11:46:11;;;;;;;60.60;8.75;;;12.80;81.80;;;;;;5025521;28;20082;-58
2023/04/14 11:48:37;;;;;;;71.68;9.52;;;12.90;81.40;;;;;;5027569;28;20098;-58
2023/04/14 11:51:03;;;;;;;62.80;8.95;;;13.00;81.20;;;;;;5037520;28;20056;-58
2023/04/14 11:53:28;;;;;;;76.95;10.70;;;13.00;81.20;;;;;;5030594;28;20034;-58
2023/04/14 11:55:56;;;;;;;81.10;10.80;;;13.00;81.20;;;;;;5033526;28;20053;-58
2023/04/14 11:58:24;;;;;;;97.22;11.57;;;13.10;81.00;;;;;;5046137;28;20050;-58
2023/04/14 12:00:50;;;;;;;94.78;11.70;;;13.20;80.70;;;;;;5033478;28;20029;-58
2023/04/14 12:03:16;;;;;;;88.03;11.23;;;13.30;80.50;;;;;;5037761;28;20048;-58
2023/04/14 12:05:42;;;;;;;98.50;13.02;;;13.30;80.20;;;;;;5019783;28;20414;-58
2023/04/14 12:08:08;;;;;;;84.95;12.27;;;13.40;79.90;;;;;;5039091;28;20033;-58
2023/04/14 12:10:34;;;;;;;77.57;9.98;;;13.50;80.00;;;;;;5039993;28;20045;-58
2023/04/14 12:13:03;;;;;;;88.95;11.73;;;13.50;79.50;;;;;;5029303;28;20029;-58
2023/04/14 12:15:35;;;;;;;104.03;14.25;;;13.60;79.40;;;;;;5025494;28;20034;-58
2023/04/14 12:18:01;;;;;;;110.43;13.70;;;13.70;79.30;;;;;;5030807;28;20042;-58
2023/04/14 12:20:29;;;;;;;114.28;14.75;;;13.70;79.30;;;;;;5022814;28;20041;-58
2023/04/14 12:23:01;;;;;;;139.52;15.77;;;13.80;79.10;;;;;;5026685;28;20030;-58
2023/04/14 12:25:31;;;;;;;105.15;11.63;;;13.90;79.00;;;;;;5034961;28;20030;-58
2023/04/14 12:27:57;;;;;;;93.78;11.88;;;13.90;78.60;;;;;;5035449;28;20091;-58
2023/04/14 12:30:25;;;;;;;111.30;13.63;;;14.00;78.30;;;;;;5030845;28;20029;-58
2023/04/14 12:32:51;;;;;;;128.32;14.70;;;14.10;77.90;;;;;;5020474;28;20127;-58
2023/04/14 12:35:22;;;;;;;88.25;12.10;;;14.10;77.70;;;;;;5031554;28;20026;-58